Time;durP1;ratioP1;P1;durP2;ratioP2;P2;SDS_P1;SDS_P2;PMS_P1;PMS_P2;Temp;Humidity;BMP_temperature;BMP_pressure;BME280_temperature;BME280_humidity;BME280_pressure;Samples;Min_cycle;Max_cycle;Signal;HPM_P1;HPM_P2
2023/10/05 00:01:30;;;;;;;;;;;;;;;19.92;59.47;97798.19;605948;234;64567;-67
2023/10/05 00:03:52;;;;;;;;;;;;;;;19.92;59.48;97800.86;605618;234;62399;-67
2023/10/05 00:06:24;;;;;;;;;;;;;;;19.92;59.45;97800.86;606032;234;67141;-67
2023/10/05 00:08:53;;;;;;;;;;;;;;;19.92;59.44;97807.00;605984;234;67190;-66
2023/10/05 00:11:36;;;;;;;;;;;;;;;19.91;59.42;97805.36;605826;234;64600;-67
2023/10/05 00:14:06;;;;;;;;;;;;;;;19.93;59.41;97802.47;605671;234;67465;-67
2023/10/05 00:16:37;;;;;;;;;;;;;;;19.92;59.43;97798.19;605879;234;67007;-67
2023/10/05 00:19:11;;;;;;;;;;;;;;;19.92;59.43;97800.86;606005;234;64747;-66
2023/10/05 00:21:46;;;;;;;;;;;;;;;19.91;59.45;97791.23;606024;234;67272;-66
2023/10/05 00:24:11;;;;;;;;;;;;;;;19.92;59.46;97795.53;605784;234;67139;-67
2023/10/05 00:26:39;;;;;;;;;;;;;;;19.92;59.43;97795.53;606063;234;63353;-63
2023/10/05 00:29:21;;;;;;;;;;;;;;;19.91;59.45;97797.36;606011;234;66954;-63
2023/10/05 00:31:48;;;;;;;;;;;;;;;19.91;59.43;97794.69;606033;234;63831;-63
2023/10/05 00:36:53;;;;;;;;;;;;;;;19.90;59.42;97793.09;606023;234;65926;-63
2023/10/05 00:39:21;;;;;;;;;;;;;;;19.90;59.39;97794.95;606041;234;67935;-67
2023/10/05 00:44:35;;;;;;;;;;;;;;;19.90;59.37;97795.76;606029;234;67272;-66
2023/10/05 00:47:06;;;;;;;;;;;;;;;19.91;59.39;97796.56;606044;234;67162;-66
2023/10/05 00:49:57;;;;;;;;;;;;;;;19.91;59.38;97799.23;606029;234;64642;-66
2023/10/05 00:54:40;;;;;;;;;;;;;;;19.91;59.37;97799.23;606039;234;67268;-67
2023/10/05 00:57:14;;;;;;;;;;;;;;;19.90;59.35;97797.63;606043;234;62369;-67
2023/10/05 00:59:43;;;;;;;;;;;;;;;19.89;59.34;97791.48;605940;234;68252;-66
2023/10/05 01:02:21;;;;;;;;;;;;;;;19.91;59.36;97799.23;606056;234;65074;-66
2023/10/05 01:07:18;;;;;;;;;;;;;;;19.90;59.34;97792.29;606048;234;67404;-66
2023/10/05 01:10:42;;;;;;;;;;;;;;;19.90;59.33;97787.75;606049;234;67503;-67
2023/10/05 01:12:22;;;;;;;;;;;;;;;19.90;59.34;97786.95;600768;234;64798;-67
2023/10/05 01:14:54;;;;;;;;;;;;;;;19.90;59.32;97786.95;602432;235;67171;-64
2023/10/05 01:17:25;;;;;;;;;;;;;;;19.90;59.32;97790.42;602666;235;66927;-63
2023/10/05 01:19:58;;;;;;;;;;;;;;;19.89;59.29;97783.48;602587;235;64764;-64
2023/10/05 01:22:23;;;;;;;;;;;;;;;19.90;59.30;97776.28;602329;235;67165;-67
2023/10/05 01:24:51;;;;;;;;;;;;;;;19.90;59.26;97786.95;602589;235;65236;-68
2023/10/05 01:27:19;;;;;;;;;;;;;;;19.90;59.30;97781.62;602639;235;64908;-67
2023/10/05 01:29:48;;;;;;;;;;;;;;;19.89;59.29;97780.02;602670;235;64522;-67
2023/10/05 01:32:15;;;;;;;;;;;;;;;19.89;59.27;97780.02;602640;235;65760;-67
2023/10/05 01:34:49;;;;;;;;;;;;;;;19.89;59.26;97769.34;602613;235;64892;-67
2023/10/05 01:37:12;;;;;;;;;;;;;;;19.88;59.26;97784.52;602401;235;67072;-67
2023/10/05 01:39:43;;;;;;;;;;;;;;;19.89;59.27;97786.15;602664;235;67575;-67
2023/10/05 01:42:11;;;;;;;;;;;;;;;19.89;59.25;97785.34;602568;235;65510;-67
2023/10/05 01:44:46;;;;;;;;;;;;;;;19.89;59.25;97783.48;602646;235;66507;-67
2023/10/05 01:47:07;;;;;;;;;;;;;;;19.89;59.25;97788.81;602277;235;66831;-67
2023/10/05 01:49:35;;;;;;;;;;;;;;;19.89;59.22;97785.34;602615;235;65427;-67
2023/10/05 01:52:03;;;;;;;;;;;;;;;19.89;59.24;97785.34;602647;235;65981;-67
2023/10/05 01:54:32;;;;;;;;;;;;;;;19.89;59.22;97788.02;602638;235;66793;-67
2023/10/05 01:57:02;;;;;;;;;;;;;;;19.89;59.23;97788.02;602664;235;64855;-67
2023/10/05 01:59:33;;;;;;;;;;;;;;;19.89;59.22;97790.69;602648;235;64221;-67
2023/10/05 02:01:58;;;;;;;;;;;;;;;19.89;59.25;97790.69;602531;235;66815;-67
2023/10/05 02:04:26;;;;;;;;;;;;;;;19.89;59.25;97790.69;602618;235;65785;-67
2023/10/05 02:06:54;;;;;;;;;;;;;;;19.89;59.23;97793.35;602661;235;67196;-67
2023/10/05 02:09:21;;;;;;;;;;;;;;;19.89;59.22;97798.69;602615;235;64873;-67
2023/10/05 02:11:49;;;;;;;;;;;;;;;19.88;59.23;97789.05;602601;235;64884;-67
2023/10/05 02:14:17;;;;;;;;;;;;;;;19.88;59.23;97792.52;605626;234;65006;-67
2023/10/05 02:16:50;;;;;;;;;;;;;;;19.88;59.22;97795.19;606002;234;67258;-67
2023/10/05 02:19:17;;;;;;;;;;;;;;;19.88;59.19;97794.38;606039;234;62638;-66
2023/10/05 02:21:45;;;;;;;;;;;;;;;19.88;59.18;97795.19;606039;234;67126;-66
2023/10/05 02:24:19;;;;;;;;;;;;;;;19.88;59.19;97800.52;606012;234;67346;-65
2023/10/05 02:29:29;;;;;;;;;;;;;;;19.87;59.20;97795.45;606019;234;68012;-66
2023/10/05 02:32:05;;;;;;;;;;;;;;;19.87;59.19;97798.11;606061;234;64324;-65
2023/10/05 02:34:38;;;;;;;;;;;;;;;19.86;59.19;97799.98;605662;234;63344;-66
2023/10/05 02:37:00;;;;;;;;;;;;;;;19.87;59.19;97798.11;605616;234;64954;-65
2023/10/05 02:39:32;;;;;;;;;;;;;;;19.87;59.18;97804.25;605982;234;67376;-63
2023/10/05 02:41:57;;;;;;;;;;;;;;;19.87;59.19;97803.45;605919;234;64570;-63
2023/10/05 02:44:32;;;;;;;;;;;;;;;19.87;59.20;97808.78;605996;232;65131;-63
2023/10/05 02:47:00;;;;;;;;;;;;;;;19.86;59.15;97809.82;606031;234;67078;-65
2023/10/05 02:49:28;;;;;;;;;;;;;;;19.86;59.17;97812.48;606033;234;65003;-63
2023/10/05 02:51:55;;;;;;;;;;;;;;;19.87;59.16;97811.45;606024;234;64736;-63
2023/10/05 02:54:23;;;;;;;;;;;;;;;19.87;59.16;97808.78;606024;234;67205;-63
2023/10/05 02:56:53;;;;;;;;;;;;;;;19.86;59.17;97804.48;606067;234;62528;-65
2023/10/05 02:59:25;;;;;;;;;;;;;;;19.85;59.14;97801.02;606004;234;64758;-66
2023/10/05 03:01:50;;;;;;;;;;;;;;;19.86;59.13;97807.15;605746;234;67027;-66
2023/10/05 03:04:21;;;;;;;;;;;;;;;19.85;59.16;97798.34;606003;234;64734;-66
2023/10/05 03:06:48;;;;;;;;;;;;;;;19.85;59.14;97802.88;605945;234;67296;-66
2023/10/05 03:09:18;;;;;;;;;;;;;;;19.85;59.14;97793.02;606031;234;66873;-64
2023/10/05 03:11:49;;;;;;;;;;;;;;;19.86;59.17;97796.48;606006;234;64644;-64
2023/10/05 03:14:17;;;;;;;;;;;;;;;19.86;59.13;97799.15;604189;234;67820;-67
2023/10/05 03:16:48;;;;;;;;;;;;;;;19.86;59.15;97796.48;604607;234;67567;-67
2023/10/05 03:19:21;;;;;;;;;;;;;;;19.85;59.14;97797.55;604602;234;65438;-67
2023/10/05 03:21:58;;;;;;;;;;;;;;;19.86;59.12;97799.15;604627;234;67465;-67
2023/10/05 03:24:24;;;;;;;;;;;;;;;19.85;59.16;97795.68;604431;234;67408;-66
2023/10/05 03:26:52;;;;;;;;;;;;;;;19.84;59.12;97794.08;604620;234;64905;-66
2023/10/05 03:29:21;;;;;;;;;;;;;;;19.84;59.15;97799.41;604571;234;67176;-66
2023/10/05 03:31:53;;;;;;;;;;;;;;;19.85;59.16;97795.68;604602;234;67655;-67
2023/10/05 03:34:26;;;;;;;;;;;;;;;19.84;59.13;97799.41;604590;234;65183;-67
2023/10/05 03:36:51;;;;;;;;;;;;;;;19.85;59.10;97797.55;604510;234;69815;-67
2023/10/05 03:39:22;;;;;;;;;;;;;;;19.84;59.14;97801.28;604600;234;64827;-67
2023/10/05 03:41:48;;;;;;;;;;;;;;;19.84;59.13;97798.61;604555;234;62717;-67
2023/10/05 03:44:16;;;;;;;;;;;;;;;19.85;59.11;97802.88;604565;234;67265;-67
2023/10/05 03:46:50;;;;;;;;;;;;;;;19.84;59.12;97787.94;604632;234;64691;-67
2023/10/05 03:49:21;;;;;;;;;;;;;;;19.84;59.11;97795.94;604288;234;64766;-67
2023/10/05 03:51:55;;;;;;;;;;;;;;;19.84;59.11;97796.74;604486;234;67335;-67
2023/10/05 03:54:15;;;;;;;;;;;;;;;19.84;59.12;97790.61;603797;234;68076;-67
2023/10/05 03:56:43;;;;;;;;;;;;;;;19.83;59.11;97787.11;604594;234;62349;-67
2023/10/05 03:59:11;;;;;;;;;;;;;;;19.83;59.10;97792.44;604562;234;67607;-67
2023/10/05 04:01:38;;;;;;;;;;;;;;;19.83;59.10;97797.77;604614;234;64872;-67
2023/10/05 04:04:08;;;;;;;;;;;;;;;19.83;59.10;97795.11;604567;234;64718;-66
2023/10/05 04:06:36;;;;;;;;;;;;;;;19.84;59.11;97803.94;604597;234;67238;-66
2023/10/05 04:09:04;;;;;;;;;;;;;;;19.83;59.07;97800.44;604596;234;64952;-66
2023/10/05 04:11:34;;;;;;;;;;;;;;;19.83;59.12;97800.44;604583;232;62654;-66
2023/10/05 04:14:03;;;;;;;;;;;;;;;19.83;59.07;97802.31;602882;234;66821;-66
2023/10/05 04:16:33;;;;;;;;;;;;;;;19.83;59.10;97808.45;602439;235;67038;-66
2023/10/05 04:19:00;;;;;;;;;;;;;;;19.83;59.10;97810.31;602406;235;64670;-66
2023/10/05 04:21:27;;;;;;;;;;;;;;;19.83;59.10;97812.98;602472;235;67202;-66
2023/10/05 04:23:58;;;;;;;;;;;;;;;19.83;59.10;97811.11;602468;235;64675;-66
2023/10/05 04:26:32;;;;;;;;;;;;;;;19.83;59.08;97810.31;602374;235;64843;-66
2023/10/05 04:28:54;;;;;;;;;;;;;;;19.83;59.08;97812.98;602090;235;67015;-67
2023/10/05 04:31:25;;;;;;;;;;;;;;;19.83;59.06;97810.31;602465;235;64616;-67
2023/10/05 04:33:54;;;;;;;;;;;;;;;19.83;59.07;97818.31;602478;235;62401;-67
2023/10/05 04:36:24;;;;;;;;;;;;;;;19.82;59.07;97817.51;602489;235;67238;-67
2023/10/05 04:38:53;;;;;;;;;;;;;;;19.83;59.05;97826.31;602292;235;64817;-67
2023/10/05 04:41:33;;;;;;;;;;;;;;;19.83;59.08;97828.98;602490;235;64882;-67
2023/10/05 04:44:00;;;;;;;;;;;;;;;19.82;59.05;97825.52;602392;235;67123;-67
2023/10/05 04:46:33;;;;;;;;;;;;;;;19.82;59.04;97825.52;602450;235;66943;-67
2023/10/05 04:49:07;;;;;;;;;;;;;;;19.81;59.06;97823.10;602253;235;64754;-67
2023/10/05 04:51:29;;;;;;;;;;;;;;;19.82;59.05;97827.38;602096;235;67194;-67
2023/10/05 04:53:58;;;;;;;;;;;;;;;19.80;59.05;97830.27;602443;235;66808;-67
2023/10/05 04:56:43;;;;;;;;;;;;;;;19.81;59.05;97837.24;602476;235;64825;-67
2023/10/05 05:07:08;;;;;;;;;;;;;;;19.81;59.07;97836.44;602460;235;67103;-67
2023/10/05 05:09:38;;;;;;;;;;;;;;;19.82;59.32;97846.05;601987;235;65089;-67
2023/10/05 05:12:16;;;;;;;;;;;;;;;19.81;59.99;97853.25;602294;235;62119;-66
2023/10/05 05:14:46;;;;;;;;;;;;;;;19.80;62.43;97845.47;602337;235;67064;-66
2023/10/05 05:17:11;;;;;;;;;;;;;;;19.78;63.44;97848.41;602325;235;64649;-69
2023/10/05 05:19:39;;;;;;;;;;;;;;;19.78;64.53;97847.56;602511;235;64625;-69
2023/10/05 05:22:07;;;;;;;;;;;;;;;19.76;64.74;97844.36;602499;235;64873;-69
2023/10/05 05:24:35;;;;;;;;;;;;;;;19.73;64.58;97843.78;602469;235;64483;-67
2023/10/05 05:27:04;;;;;;;;;;;;;;;19.72;63.22;97844.84;602515;235;64807;-67
2023/10/05 05:29:34;;;;;;;;;;;;;;;19.72;62.72;97847.52;602498;235;66903;-66
2023/10/05 05:32:11;;;;;;;;;;;;;;;19.72;64.10;97852.84;602510;235;67010;-67
2023/10/05 05:34:52;;;;;;;;;;;;;;;19.72;63.24;97850.18;602468;235;62753;-67
2023/10/05 05:37:35;;;;;;;;;;;;;;;19.72;63.00;97854.68;602088;235;67355;-66
2023/10/05 05:39:49;;;;;;;;;;;;;;;19.71;63.79;97850.41;601322;235;66840;-67
2023/10/05 05:42:18;;;;;;;;;;;;;;;19.71;63.29;97858.41;602508;235;62363;-67
2023/10/05 05:44:45;;;;;;;;;;;;;;;19.71;61.69;97859.21;602527;235;64907;-67
2023/10/05 05:47:14;;;;;;;;;;;;;;;19.71;62.19;97859.21;602482;235;66937;-67
2023/10/05 05:49:42;;;;;;;;;;;;;;;19.71;61.42;97853.88;602518;235;64746;-67
2023/10/05 05:52:10;;;;;;;;;;;;;;;19.71;63.12;97864.55;602552;235;64618;-67
2023/10/05 05:54:38;;;;;;;;;;;;;;;19.70;61.70;97865.61;602426;235;66756;-67
2023/10/05 05:57:17;;;;;;;;;;;;;;;19.70;62.86;97868.27;602490;235;64750;-67
2023/10/05 05:59:39;;;;;;;;;;;;;;;19.70;62.63;97873.61;602049;235;66986;-65
2023/10/05 06:02:08;;;;;;;;;;;;;;;19.70;60.91;97870.14;602476;235;64779;-67
2023/10/05 06:04:36;;;;;;;;;;;;;;;19.71;58.07;97879.74;602518;235;64801;-69
2023/10/05 06:07:11;;;;;;;;;;;;;;;19.72;58.69;97878.69;602517;235;65380;-69
2023/10/05 06:09:33;;;;;;;;;;;;;;;19.72;58.65;97876.84;602207;235;66641;-68
2023/10/05 06:12:01;;;;;;;;;;;;;;;19.73;58.78;97872.31;602507;235;62303;-68
2023/10/05 06:14:32;;;;;;;;;;;;;;;19.72;58.97;97871.52;600567;234;66755;-68
2023/10/05 06:16:58;;;;;;;;;;;;;;;19.72;59.23;97868.84;599980;236;66910;-69
2023/10/05 06:19:27;;;;;;;;;;;;;;;19.72;59.25;97874.18;603915;233;64975;-69
2023/10/05 06:21:54;;;;;;;;;;;;;;;19.71;59.42;97872.55;607326;233;64867;-69
2023/10/05 06:24:23;;;;;;;;;;;;;;;19.72;59.97;97871.52;607132;233;67171;-69
2023/10/05 06:26:51;;;;;;;;;;;;;;;19.73;60.04;97874.98;607243;233;64634;-68
2023/10/05 06:29:18;;;;;;;;;;;;;;;19.72;59.46;97873.34;607350;233;64638;-68
2023/10/05 06:31:46;;;;;;;;;;;;;;;19.72;60.58;97868.02;607312;233;64592;-69
2023/10/05 06:34:13;;;;;;;;;;;;;;;19.72;58.92;97866.18;607351;233;62421;-69
2023/10/05 06:36:42;;;;;;;;;;;;;;;19.72;58.22;97876.84;607388;233;64663;-68
2023/10/05 06:39:14;;;;;;;;;;;;;;;19.75;58.56;97875.53;607288;233;65625;-68
2023/10/05 06:41:42;;;;;;;;;;;;;;;19.79;59.07;97875.88;607384;233;65444;-69
2023/10/05 06:44:10;;;;;;;;;;;;;;;19.82;58.86;97880.72;607035;233;64626;-62
2023/10/05 06:46:44;;;;;;;;;;;;;;;19.79;58.73;97876.67;600577;236;67103;-64
2023/10/05 06:49:08;;;;;;;;;;;;;;;19.78;59.77;97877.73;592844;238;64599;-64
2023/10/05 06:51:43;;;;;;;;;;;;;;;19.76;60.70;97871.03;600561;236;67237;-64
2023/10/05 06:54:05;;;;;;;;;;;;;;;19.76;60.29;97876.36;592795;238;67021;-68
2023/10/05 06:56:32;;;;;;;;;;;;;;;19.76;60.11;97876.36;600615;236;64660;-65
2023/10/05 06:59:00;;;;;;;;;;;;;;;19.75;59.91;97872.86;593036;239;67162;-64
2023/10/05 07:01:27;;;;;;;;;;;;;;;19.77;59.83;97880.63;600810;235;67062;-65
2023/10/05 07:03:55;;;;;;;;;;;;;;;19.77;60.09;97872.63;602004;235;64720;-65
2023/10/05 07:06:24;;;;;;;;;;;;;;;19.78;60.17;97874.23;601976;235;64983;-65
2023/10/05 07:08:52;;;;;;;;;;;;;;;19.78;60.46;97877.73;602023;235;66949;-64
2023/10/05 07:11:20;;;;;;;;;;;;;;;19.78;60.66;97876.91;602047;235;62586;-65
2023/10/05 07:13:48;;;;;;;;;;;;;;;19.78;60.66;97874.23;603579;232;65104;-65
2023/10/05 07:16:16;;;;;;;;;;;;;;;19.79;65.18;97879.34;594919;237;67010;-65
2023/10/05 07:18:44;;;;;;;;;;;;;;;19.77;61.64;97873.44;593935;239;62531;-65
2023/10/05 07:21:11;;;;;;;;;;;;;;;19.77;61.21;97878.77;593834;239;64799;-64
2023/10/05 07:23:41;;;;;;;;;;;;;;;19.77;61.21;97875.30;593942;239;64706;-64
2023/10/05 07:26:12;;;;;;;;;;;;;;;19.77;61.00;97873.44;593958;239;62797;-69
2023/10/05 07:28:41;;;;;;;;;;;;;;;19.78;60.85;97880.41;593950;239;67425;-69
2023/10/05 07:31:09;;;;;;;;;;;;;;;19.79;60.83;97883.88;593921;239;64468;-69
2023/10/05 07:33:36;;;;;;;;;;;;;;;19.79;60.84;97875.88;593917;239;64577;-69
2023/10/05 07:36:05;;;;;;;;;;;;;;;19.78;60.86;97869.73;593905;239;67230;-69
2023/10/05 07:38:33;;;;;;;;;;;;;;;19.79;61.01;97873.20;593884;239;65101;-69
2023/10/05 07:41:03;;;;;;;;;;;;;;;19.78;61.51;97875.07;593901;239;62323;-68
2023/10/05 07:43:32;;;;;;;;;;;;;;;19.79;61.27;97870.54;593898;239;64885;-67
2023/10/05 07:46:00;;;;;;;;;;;;;;;19.78;61.28;97871.57;593940;239;66884;-67
2023/10/05 07:48:28;;;;;;;;;;;;;;;19.79;61.29;97881.20;593922;239;64567;-67
2023/10/05 07:50:55;;;;;;;;;;;;;;;19.79;65.03;97881.20;593897;239;65082;-67
2023/10/05 07:53:23;;;;;;;;;;;;;;;19.78;63.26;97877.73;593940;239;64780;-67
2023/10/05 07:55:50;;;;;;;;;;;;;;;19.78;63.77;97874.23;593931;239;62483;-67
2023/10/05 07:58:19;;;;;;;;;;;;;;;19.78;62.92;97874.23;593940;239;66934;-67
2023/10/05 08:00:46;;;;;;;;;;;;;;;19.78;63.36;97875.07;593911;239;64711;-67
2023/10/05 08:03:14;;;;;;;;;;;;;;;19.78;62.75;97874.23;593908;239;62443;-67
2023/10/05 08:05:41;;;;;;;;;;;;;;;19.77;62.08;97869.97;593898;239;67376;-67
2023/10/05 08:08:10;;;;;;;;;;;;;;;19.78;60.67;97871.57;593914;239;64772;-67
2023/10/05 08:10:38;;;;;;;;;;;;;;;19.78;60.84;97866.23;593906;239;64542;-67
2023/10/05 08:13:06;;;;;;;;;;;;;;;19.80;60.96;97866.81;594618;238;67220;-67
2023/10/05 08:15:34;;;;;;;;;;;;;;;19.80;61.71;97853.47;595290;237;65924;-67
2023/10/05 08:18:02;;;;;;;;;;;;;;;19.79;61.25;97852.67;595261;237;64574;-67
2023/10/05 08:20:31;;;;;;;;;;;;;;;19.80;60.98;97862.28;595397;237;64727;-67
2023/10/05 08:22:59;;;;;;;;;;;;;;;19.81;61.04;97857.78;595291;237;64659;-67
2023/10/05 08:25:28;;;;;;;;;;;;;;;19.80;60.68;97848.94;595265;237;64636;-67
2023/10/05 08:27:55;;;;;;;;;;;;;;;19.80;60.54;97848.14;595288;237;67310;-68
2023/10/05 08:30:26;;;;;;;;;;;;;;;19.80;61.10;97848.94;595352;237;66752;-67
2023/10/05 08:32:56;;;;;;;;;;;;;;;19.80;61.04;97851.61;595276;237;62581;-68
2023/10/05 08:35:26;;;;;;;;;;;;;;;19.81;60.81;97847.11;595312;237;65616;-63
2023/10/05 08:37:53;;;;;;;;;;;;;;;19.81;60.71;97841.77;595274;237;66914;-63
2023/10/05 08:43:16;;;;;;;;;;;;;;;19.82;60.75;97848.71;595279;237;67221;-64
2023/10/05 08:45:51;;;;;;;;;;;;;;;19.81;60.67;97844.44;595306;237;64680;-64
2023/10/05 08:48:18;;;;;;;;;;;;;;;19.81;60.75;97842.58;595001;237;62391;-64
2023/10/05 08:50:46;;;;;;;;;;;;;;;19.81;60.80;97837.24;595200;237;67042;-64
2023/10/05 08:53:14;;;;;;;;;;;;;;;19.82;61.17;97838.05;595289;237;68297;-63
2023/10/05 08:55:43;;;;;;;;;;;;;;;19.82;62.06;97838.05;595312;237;62484;-68
2023/10/05 08:58:18;;;;;;;;;;;;;;;19.83;61.23;97839.65;595314;237;67170;-67
2023/10/05 09:00:40;;;;;;;;;;;;;;;19.81;61.00;97834.58;594996;237;64715;-67
2023/10/05 09:03:53;;;;;;;;;;;;;;;19.81;61.11;97831.91;595264;237;64745;-67
2023/10/05 09:06:12;;;;;;;;;;;;;;;19.82;61.16;97828.18;591812;237;68065;-67
2023/10/05 09:08:27;;;;;;;;;;;;;;;19.82;61.75;97832.71;594667;237;68034;-68
2023/10/05 09:10:56;;;;;;;;;;;;;;;19.81;61.64;97826.58;595299;237;64675;-68
2023/10/05 09:13:23;;;;;;;;;;;;;;;19.82;61.70;97825.52;595268;237;66870;-68
2023/10/05 09:15:51;;;;;;;;;;;;;;;19.83;61.40;97815.64;595238;237;65651;-68
2023/10/05 09:18:25;;;;;;;;;;;;;;;19.82;61.20;97817.51;595279;238;62766;-68
2023/10/05 09:20:50;;;;;;;;;;;;;;;19.82;61.34;97814.84;593405;237;65155;-67
2023/10/05 09:23:24;;;;;;;;;;;;;;;19.83;61.72;97812.98;595332;237;66921;-68
2023/10/05 09:25:50;;;;;;;;;;;;;;;19.84;61.59;97806.61;593768;237;62398;-68
2023/10/05 09:28:45;;;;;;;;;;;;;;;19.84;61.41;97801.28;592163;237;65797;-68
2023/10/05 09:30:59;;;;;;;;;;;;;;;19.84;61.51;97806.61;591118;238;67304;-69
2023/10/05 09:33:27;;;;;;;;;;;;;;;19.84;62.42;97802.08;595309;237;62508;-69
2023/10/05 09:36:08;;;;;;;;;;;;;;;19.84;61.92;97801.28;591659;238;67428;-69
2023/10/05 09:38:45;;;;;;;;;;;;;;;19.84;61.61;97793.27;594096;238;67631;-68
2023/10/05 09:41:14;;;;;;;;;;;;;;;19.82;61.55;97790.84;595927;238;62494;-68
2023/10/05 09:43:42;;;;;;;;;;;;;;;19.84;61.58;97790.61;596543;238;64976;-67
2023/10/05 09:46:11;;;;;;;;;;;;;;;19.83;61.55;97786.30;595971;235;67000;-68
2023/10/05 09:48:39;;;;;;;;;;;;;;;19.85;62.85;97784.20;596059;237;64553;-69
2023/10/05 09:51:10;;;;;;;;;;;;;;;19.86;62.78;97789.31;598011;235;64863;-68
2023/10/05 09:53:37;;;;;;;;;;;;;;;19.88;61.75;97781.05;597355;236;65058;-65
2023/10/05 09:56:05;;;;;;;;;;;;;;;19.89;61.60;97780.02;604199;234;63522;-65
2023/10/05 09:58:34;;;;;;;;;;;;;;;19.91;61.35;97783.22;605575;234;65024;-66
2023/10/05 10:01:10;;;;;;;;;;;;;;;19.92;61.01;97774.19;604542;234;67398;-66
2023/10/05 10:03:31;;;;;;;;;;;;;;;19.93;61.03;97770.45;604507;234;64633;-68
2023/10/05 10:06:12;;;;;;;;;;;;;;;19.94;60.93;97769.39;604113;234;66686;-67
2023/10/05 10:08:33;;;;;;;;;;;;;;;19.94;60.76;97764.05;594652;237;64514;-67
2023/10/05 10:11:09;;;;;;;;;;;;;;;19.98;60.91;97761.72;602748;235;63647;-65
2023/10/05 10:13:39;;;;;;;;;;;;;;;19.98;60.75;97767.06;594288;238;66853;-64
2023/10/05 10:16:23;;;;;;;;;;;;;;;19.98;60.36;97751.85;604322;234;67045;-65
2023/10/05 10:19:03;;;;;;;;;;;;;;;19.99;60.72;97756.12;603970;234;62365;-65
2023/10/05 10:21:26;;;;;;;;;;;;;;;20.01;60.64;97750.55;603995;234;67513;-64
2023/10/05 10:24:07;;;;;;;;;;;;;;;20.01;60.21;97748.69;604155;234;66851;-64
2023/10/05 10:26:32;;;;;;;;;;;;;;;20.02;60.41;97741.48;599062;234;62506;-64
2023/10/05 10:29:05;;;;;;;;;;;;;;;20.03;60.35;97743.13;604424;234;64382;-65
2023/10/05 10:31:42;;;;;;;;;;;;;;;20.03;60.32;97733.25;603403;234;66893;-65
2023/10/05 10:34:19;;;;;;;;;;;;;;;20.04;60.26;97740.19;603203;234;61172;-63
2023/10/05 10:36:47;;;;;;;;;;;;;;;20.03;60.46;97727.91;604284;235;67451;-62
2023/10/05 10:39:24;;;;;;;;;;;;;;;20.02;61.78;97718.27;604258;235;66863;-63
2023/10/05 10:42:07;;;;;;;;;;;;;;;19.99;61.92;97721.44;604266;235;64891;-63
2023/10/05 10:47:22;;;;;;;;;;;;;;;19.96;61.46;97717.41;604158;235;64551;-63
2023/10/05 10:50:14;;;;;;;;;;;;;;;19.96;61.74;97711.27;604244;235;65901;-63
2023/10/05 10:52:42;;;;;;;;;;;;;;;19.95;61.77;97704.33;604263;235;67081;-62
2023/10/05 10:55:14;;;;;;;;;;;;;;;19.93;62.04;97701.89;604128;235;65051;-63
2023/10/05 10:57:42;;;;;;;;;;;;;;;19.94;62.44;97698.19;604088;235;62767;-63
2023/10/05 11:02:56;;;;;;;;;;;;;;;19.93;61.65;97691.22;604223;235;67717;-63
2023/10/05 11:05:43;;;;;;;;;;;;;;;19.93;61.50;97690.42;602453;235;62511;-64
2023/10/05 11:08:15;;;;;;;;;;;;;;;19.93;61.48;97685.09;601823;235;64857;-64
2023/10/05 11:10:42;;;;;;;;;;;;;;;19.93;61.31;97682.42;601912;235;67030;-64
2023/10/05 11:13:20;;;;;;;;;;;;;;;19.93;61.16;97677.88;601068;235;64986;-64
2023/10/05 11:16:01;;;;;;;;;;;;;;;19.93;61.13;97675.22;600012;236;67110;-64
2023/10/05 11:18:34;;;;;;;;;;;;;;;19.93;61.01;97672.55;600096;236;64436;-64
2023/10/05 11:21:08;;;;;;;;;;;;;;;19.93;61.02;97674.42;599747;236;64625;-64
2023/10/05 11:23:48;;;;;;;;;;;;;;;19.93;60.94;97663.75;599984;236;64504;-64
2023/10/05 11:26:26;;;;;;;;;;;;;;;19.93;60.89;97659.21;600050;236;65001;-64
2023/10/05 11:28:56;;;;;;;;;;;;;;;19.93;60.80;97666.41;599815;236;62373;-65
2023/10/05 11:31:26;;;;;;;;;;;;;;;19.93;60.73;97663.75;599626;236;66792;-64
2023/10/05 11:33:53;;;;;;;;;;;;;;;19.93;60.81;97658.41;599700;236;64576;-64
2023/10/05 11:36:27;;;;;;;;;;;;;;;19.93;60.79;97661.87;602581;234;62714;-64
2023/10/05 11:38:57;;;;;;;;;;;;;;;19.93;60.70;97653.87;601434;234;66973;-64
2023/10/05 11:41:23;;;;;;;;;;;;;;;19.92;60.63;97660.28;602186;234;64474;-64
2023/10/05 11:43:52;;;;;;;;;;;;;;;19.93;60.66;97663.75;601982;234;62386;-64
2023/10/05 11:46:26;;;;;;;;;;;;;;;19.93;60.67;97653.87;601206;234;64531;-64
2023/10/05 11:49:04;;;;;;;;;;;;;;;19.93;60.67;97658.41;603586;234;66784;-68
2023/10/05 11:51:27;;;;;;;;;;;;;;;19.94;60.60;97646.67;601933;234;63504;-63
2023/10/05 11:53:58;;;;;;;;;;;;;;;19.94;60.10;97639.50;603249;234;67253;-63
2023/10/05 11:56:30;;;;;;;;;;;;;;;19.96;60.13;97644.57;603028;234;66788;-64
2023/10/05 11:58:56;;;;;;;;;;;;;;;19.96;60.43;97648.05;603031;234;68495;-64
2023/10/05 12:01:24;;;;;;;;;;;;;;;19.96;60.72;97634.70;603475;234;66939;-67
2023/10/05 12:03:52;;;;;;;;;;;;;;;19.98;60.00;97631.80;603137;234;66882;-65
2023/10/05 12:06:23;;;;;;;;;;;;;;;19.99;60.02;97630.73;603612;234;62736;-66
2023/10/05 12:08:48;;;;;;;;;;;;;;;20.01;60.00;97635.83;602386;234;64702;-64
2023/10/05 12:11:16;;;;;;;;;;;;;;;20.01;60.49;97633.97;602848;234;64744;-64
2023/10/05 12:13:43;;;;;;;;;;;;;;;20.00;60.98;97629.70;604021;234;64990;-65
2023/10/05 12:16:14;;;;;;;;;;;;;;;20.01;60.16;97628.63;604975;234;66864;-64
2023/10/05 12:18:42;;;;;;;;;;;;;;;20.01;60.77;97623.30;604638;234;64593;-64
2023/10/05 12:21:10;;;;;;;;;;;;;;;20.02;60.80;97627.56;604994;234;61989;-64
2023/10/05 12:23:38;;;;;;;;;;;;;;;20.01;60.80;97623.30;605306;234;64627;-65
2023/10/05 12:26:10;;;;;;;;;;;;;;;20.01;60.87;97622.49;605474;234;66805;-65
2023/10/05 12:28:34;;;;;;;;;;;;;;;20.00;60.88;97619.02;604903;234;65445;-65
2023/10/05 12:31:02;;;;;;;;;;;;;;;20.00;60.78;97610.19;605172;234;67129;-65
2023/10/05 12:33:30;;;;;;;;;;;;;;;19.99;60.85;97601.38;604202;234;66509;-64
2023/10/05 12:36:01;;;;;;;;;;;;;;;19.99;60.83;97604.05;604131;234;64616;-65
2023/10/05 12:38:27;;;;;;;;;;;;;;;19.99;60.81;97601.38;605547;234;67651;-65
2023/10/05 12:40:54;;;;;;;;;;;;;;;19.98;60.81;97602.45;604622;234;66925;-65
2023/10/05 12:43:22;;;;;;;;;;;;;;;19.99;60.74;97597.92;604619;234;62424;-65
2023/10/05 12:45:50;;;;;;;;;;;;;;;19.98;60.80;97605.13;604641;234;66764;-65
2023/10/05 12:48:18;;;;;;;;;;;;;;;19.99;60.81;97600.59;605917;234;66670;-65
2023/10/05 12:50:45;;;;;;;;;;;;;;;19.99;60.73;97588.05;605979;234;62368;-68
2023/10/05 12:53:13;;;;;;;;;;;;;;;19.99;60.72;97592.58;609871;232;66698;-68
2023/10/05 12:55:40;;;;;;;;;;;;;;;19.99;60.84;97588.05;611329;232;64708;-68
2023/10/05 12:58:09;;;;;;;;;;;;;;;19.99;60.76;97590.71;611367;232;62454;-69
2023/10/05 13:00:45;;;;;;;;;;;;;;;19.99;60.72;97592.58;604590;232;66887;-69
2023/10/05 13:03:06;;;;;;;;;;;;;;;19.99;60.58;97580.05;604435;234;66803;-67
2023/10/05 13:05:43;;;;;;;;;;;;;;;20.00;60.72;97584.34;604296;234;62829;-68
2023/10/05 13:08:03;;;;;;;;;;;;;;;20.02;60.90;97573.40;604554;234;64905;-68
2023/10/05 13:10:32;;;;;;;;;;;;;;;20.00;60.93;97564.84;604213;234;66682;-68
2023/10/05 13:13:09;;;;;;;;;;;;;;;20.00;60.96;97568.33;604363;234;64219;-68
2023/10/05 13:15:34;;;;;;;;;;;;;;;20.00;60.97;97554.16;603541;234;66929;-68
2023/10/05 13:18:25;;;;;;;;;;;;;;;20.00;60.95;97556.83;604478;234;66731;-68
2023/10/05 13:20:33;;;;;;;;;;;;;;;20.01;60.89;97558.47;603779;234;64685;-68
2023/10/05 13:23:01;;;;;;;;;;;;;;;20.00;60.97;97557.66;605301;234;64335;-68
2023/10/05 13:25:29;;;;;;;;;;;;;;;20.01;61.01;97550.46;604529;234;66776;-68
2023/10/05 13:27:56;;;;;;;;;;;;;;;20.00;61.04;97551.50;604565;234;62530;-68
2023/10/05 13:30:27;;;;;;;;;;;;;;;20.00;60.94;97549.66;604527;234;64432;-68